Time;durP1;ratioP1;P1;durP2;ratioP2;P2;SDS_P1;SDS_P2;PMS_P1;PMS_P2;Temp;Humidity;BMP_temperature;BMP_pressure;BME280_temperature;BME280_humidity;BME280_pressure;Samples;Min_cycle;Max_cycle;Signal;HPM_P1;HPM_P2
2021/07/17 00:00:49;;;;;;;29.93;13.90;;;;;;;;;;5073826;28;20441;-79
2021/07/17 00:03:17;;;;;;;34.67;14.60;;;;;;;;;;5074427;28;20526;-79
2021/07/17 00:05:44;;;;;;;28.30;13.73;;;;;;;;;;5074377;28;20463;-79
2021/07/17 00:08:12;;;;;;;29.33;15.13;;;;;;;;;;5074044;28;20445;-79
2021/07/17 00:10:40;;;;;;;28.60;13.50;;;;;;;;;;5073865;28;20969;-79
2021/07/17 00:13:07;;;;;;;29.73;15.03;;;;;;;;;;5074022;28;20444;-79
2021/07/17 00:15:36;;;;;;;34.17;14.40;;;;;;;;;;5073889;28;20470;-80
2021/07/17 00:18:04;;;;;;;24.00;15.90;;;;;;;;;;5073958;28;20637;-80
2021/07/17 00:20:31;;;;;;;30.70;16.07;;;;;;;;;;5073875;28;20442;-82
2021/07/17 00:22:58;;;;;;;25.67;16.70;;;;;;;;;;5074237;28;20436;-82
2021/07/17 00:25:25;;;;;;;29.70;16.30;;;;;;;;;;5074363;28;20441;-82
2021/07/17 00:27:52;;;;;;;28.50;15.60;;;;;;;;;;5073771;28;20471;-82
2021/07/17 00:30:20;;;;;;;30.67;16.50;;;;;;;;;;5074114;28;20436;-82
2021/07/17 00:32:49;;;;;;;36.03;18.20;;;;;;;;;;5073431;28;20450;-83
2021/07/17 00:35:16;;;;;;;44.07;15.40;;;;;;;;;;5073803;28;20868;-82
2021/07/17 00:37:43;;;;;;;35.57;16.30;;;;;;;;;;5073673;28;20441;-83
2021/07/17 00:40:12;;;;;;;26.83;15.80;;;;;;;;;;5073328;28;20443;-81
2021/07/17 00:42:40;;;;;;;27.93;16.13;;;;;;;;;;5073644;28;20443;-82
2021/07/17 00:45:08;;;;;;;42.30;18.20;;;;;;;;;;5073345;28;20949;-81
2021/07/17 00:47:36;;;;;;;40.50;16.77;;;;;;;;;;5073698;28;20447;-81
2021/07/17 00:50:05;;;;;;;40.37;16.90;;;;;;;;;;5073919;28;20441;-82
2021/07/17 00:52:32;;;;;;;37.87;16.57;;;;;;;;;;5073430;28;20463;-82
2021/07/17 00:54:59;;;;;;;30.50;16.53;;;;;;;;;;5073533;28;20827;-81
2021/07/17 00:57:26;;;;;;;27.20;16.57;;;;;;;;;;5073421;28;20480;-80
2021/07/17 00:59:56;;;;;;;29.00;17.23;;;;;;;;;;5073072;28;20444;-84
2021/07/17 01:02:24;;;;;;;41.90;17.73;;;;;;;;;;5076274;28;20438;-82
2021/07/17 01:04:53;;;;;;;32.77;16.53;;;;;;;;;;5077156;28;20856;-81
2021/07/17 01:07:25;;;;;;;37.17;16.80;;;;;;;;;;5077500;28;20446;-80
2021/07/17 01:09:52;;;;;;;28.00;15.30;;;;;;;;;;5077072;28;20425;-80
2021/07/17 01:12:19;;;;;;;27.37;16.10;;;;;;;;;;5076859;28;20466;-80
2021/07/17 01:14:47;;;;;;;33.53;16.10;;;;;;;;;;5077175;28;20432;-81
2021/07/17 01:17:14;;;;;;;32.30;16.40;;;;;;;;;;5076742;28;20473;-83
2021/07/17 01:19:42;;;;;;;33.03;16.40;;;;;;;;;;5077331;28;20468;-80
2021/07/17 01:22:11;;;;;;;30.90;17.33;;;;;;;;;;5077022;28;20459;-80
2021/07/17 01:24:38;;;;;;;29.93;17.50;;;;;;;;;;5077030;28;20945;-80
2021/07/17 01:27:06;;;;;;;27.50;15.07;;;;;;;;;;5076975;28;20451;-80
2021/07/17 01:29:34;;;;;;;25.50;17.03;;;;;;;;;;5077458;28;20528;-79
2021/07/17 01:32:02;;;;;;;20.40;14.60;;;;;;;;;;5076988;28;20490;-79
2021/07/17 01:34:29;;;;;;;22.93;14.63;;;;;;;;;;5076710;28;20461;-79
2021/07/17 01:36:56;;;;;;;33.23;16.60;;;;;;;;;;5077065;28;20845;-78
2021/07/17 01:39:25;;;;;;;28.97;16.23;;;;;;;;;;5076830;28;20801;-78
2021/07/17 01:41:52;;;;;;;28.30;16.10;;;;;;;;;;5076447;28;20452;-80
2021/07/17 01:44:20;;;;;;;33.97;17.17;;;;;;;;;;5076708;28;20444;-79
2021/07/17 01:46:47;;;;;;;32.40;16.03;;;;;;;;;;5076258;28;20453;-79
2021/07/17 01:49:15;;;;;;;32.10;16.50;;;;;;;;;;5077026;28;20437;-79
2021/07/17 01:51:42;;;;;;;29.60;14.60;;;;;;;;;;5076920;28;20449;-79
2021/07/17 01:54:09;;;;;;;26.93;16.17;;;;;;;;;;5076178;28;20469;-79
2021/07/17 01:56:38;;;;;;;26.57;15.60;;;;;;;;;;5074892;28;20481;-78
2021/07/17 01:59:05;;;;;;;29.47;15.23;;;;;;;;;;5075484;28;20477;-77
2021/07/17 02:01:32;;;;;;;31.77;15.70;;;;;;;;;;5074851;28;20448;-77
2021/07/17 02:03:59;;;;;;;30.67;15.47;;;;;;;;;;5075054;28;20479;-80
2021/07/17 02:06:27;;;;;;;26.80;14.93;;;;;;;;;;5075127;28;20433;-80
2021/07/17 02:08:55;;;;;;;37.93;15.77;;;;;;;;;;5074750;28;20436;-79
2021/07/17 02:11:22;;;;;;;23.30;14.43;;;;;;;;;;5074738;28;20922;-79
2021/07/17 02:13:51;;;;;;;32.37;14.87;;;;;;;;;;5074724;28;20471;-79
2021/07/17 02:16:18;;;;;;;35.60;15.97;;;;;;;;;;5074515;28;20480;-78
2021/07/17 02:18:45;;;;;;;21.47;14.30;;;;;;;;;;5075709;28;20774;-78
2021/07/17 02:21:13;;;;;;;27.07;17.20;;;;;;;;;;5074536;28;20438;-77
2021/07/17 02:23:41;;;;;;;39.93;16.00;;;;;;;;;;5074870;28;20443;-79
2021/07/17 02:26:08;;;;;;;35.00;16.97;;;;;;;;;;5074476;28;20440;-77
2021/07/17 02:28:36;;;;;;;36.33;18.50;;;;;;;;;;5074811;28;20447;-77
2021/07/17 02:31:04;;;;;;;36.90;17.27;;;;;;;;;;5074760;28;20944;-77
2021/07/17 02:33:31;;;;;;;28.33;16.67;;;;;;;;;;5074819;28;20438;-77
2021/07/17 02:35:59;;;;;;;36.30;16.10;;;;;;;;;;5075257;28;20456;-77
2021/07/17 02:38:26;;;;;;;38.47;16.80;;;;;;;;;;5075281;28;20433;-77
2021/07/17 02:40:53;;;;;;;25.03;15.40;;;;;;;;;;5074953;28;20531;-78
2021/07/17 02:43:20;;;;;;;35.67;17.00;;;;;;;;;;5074746;28;20441;-77
2021/07/17 02:45:47;;;;;;;36.07;17.03;;;;;;;;;;5075135;28;20442;-78
2021/07/17 02:48:16;;;;;;;34.17;17.77;;;;;;;;;;5074262;28;20930;-77
2021/07/17 02:50:43;;;;;;;29.83;16.50;;;;;;;;;;5074500;28;20447;-78
2021/07/17 02:53:10;;;;;;;30.07;16.23;;;;;;;;;;5034986;28;1111952;-77
2021/07/17 02:55:38;;;;;;;33.40;16.47;;;;;;;;;;5075985;28;20504;-77
2021/07/17 02:58:05;;;;;;;33.90;15.03;;;;;;;;;;5075002;28;20485;-78
2021/07/17 03:00:35;;;;;;;27.83;14.53;;;;;;;;;;5075001;28;20445;-78
2021/07/17 03:03:02;;;;;;;29.40;15.23;;;;;;;;;;5075263;28;20470;-78
2021/07/17 03:05:31;;;;;;;29.37;14.90;;;;;;;;;;5074943;28;20795;-78
2021/07/17 03:07:58;;;;;;;32.33;14.90;;;;;;;;;;5074891;28;20449;-78
2021/07/17 03:10:25;;;;;;;32.73;15.80;;;;;;;;;;5074808;28;20438;-77
2021/07/17 03:12:52;;;;;;;35.10;16.60;;;;;;;;;;5074865;28;20998;-78
2021/07/17 03:15:20;;;;;;;31.10;13.40;;;;;;;;;;5074759;28;20455;-78
2021/07/17 03:17:47;;;;;;;23.70;14.90;;;;;;;;;;5074953;28;20480;-79
2021/07/17 03:20:14;;;;;;;31.60;13.90;;;;;;;;;;5074691;28;20443;-80
2021/07/17 03:22:43;;;;;;;23.83;13.53;;;;;;;;;;5075113;28;20534;-79
2021/07/17 03:25:11;;;;;;;27.93;14.67;;;;;;;;;;5074439;28;20446;-79
2021/07/17 03:27:38;;;;;;;28.87;14.27;;;;;;;;;;5074517;28;20445;-79
2021/07/17 03:30:06;;;;;;;29.40;14.80;;;;;;;;;;5074476;28;20441;-79
2021/07/17 03:32:34;;;;;;;24.90;15.00;;;;;;;;;;5074683;28;20450;-79
2021/07/17 03:35:02;;;;;;;30.93;16.00;;;;;;;;;;5074653;28;20448;-79
2021/07/17 03:37:30;;;;;;;32.63;13.93;;;;;;;;;;5075011;28;20568;-78
2021/07/17 03:39:58;;;;;;;22.67;11.77;;;;;;;;;;5074467;28;20928;-80
2021/07/17 03:42:25;;;;;;;27.00;13.70;;;;;;;;;;5075329;28;20433;-79
2021/07/17 03:44:53;;;;;;;25.73;13.77;;;;;;;;;;5074193;28;20443;-80
2021/07/17 03:47:20;;;;;;;28.90;14.73;;;;;;;;;;5074091;28;20938;-79
2021/07/17 03:49:47;;;;;;;28.07;13.50;;;;;;;;;;5074508;28;20536;-79
2021/07/17 03:52:15;;;;;;;23.50;12.70;;;;;;;;;;5074356;28;20443;-79
2021/07/17 03:54:42;;;;;;;28.30;14.40;;;;;;;;;;5074313;28;20477;-78
2021/07/17 03:57:10;;;;;;;32.83;15.83;;;;;;;;;;5073854;28;20998;-78
2021/07/17 03:59:37;;;;;;;33.00;13.83;;;;;;;;;;5074196;28;20757;-78
2021/07/17 04:02:05;;;;;;;25.07;14.83;;;;;;;;;;5073993;28;20480;-78
2021/07/17 04:04:38;;;;;;;22.23;14.10;;;;;;;;;;5075996;28;20442;-82
2021/07/17 04:07:06;;;;;;;32.37;13.73;;;;;;;;;;5077782;28;20437;-82
2021/07/17 04:09:33;;;;;;;33.47;14.07;;;;;;;;;;5077257;28;20442;-81
2021/07/17 04:12:00;;;;;;;26.27;12.67;;;;;;;;;;5074078;28;20441;-77
2021/07/17 04:14:29;;;;;;;33.63;18.03;;;;;;;;;;5073656;28;20457;-77
2021/07/17 04:16:56;;;;;;;34.47;14.10;;;;;;;;;;5073708;28;20520;-78
2021/07/17 04:19:23;;;;;;;30.97;15.80;;;;;;;;;;5073922;28;20480;-77
2021/07/17 04:21:50;;;;;;;24.93;15.10;;;;;;;;;;5073900;28;20438;-77
2021/07/17 04:24:17;;;;;;;32.23;15.00;;;;;;;;;;5074054;28;20449;-77
2021/07/17 04:26:45;;;;;;;34.83;15.43;;;;;;;;;;5073519;28;20444;-78
2021/07/17 04:29:13;;;;;;;29.60;16.20;;;;;;;;;;5073752;28;20974;-74
2021/07/17 04:31:42;;;;;;;31.60;14.93;;;;;;;;;;5073817;28;20456;-74
2021/07/17 04:34:09;;;;;;;30.90;15.83;;;;;;;;;;5073629;28;20490;-73
2021/07/17 04:36:36;;;;;;;41.43;16.30;;;;;;;;;;5074281;28;20919;-74
2021/07/17 04:39:04;;;;;;;34.47;15.67;;;;;;;;;;5073677;28;20533;-76
2021/07/17 04:41:31;;;;;;;32.97;15.80;;;;;;;;;;5079802;28;20463;-76
2021/07/17 04:43:58;;;;;;;44.93;17.83;;;;;;;;;;5090367;28;20476;-75
2021/07/17 04:46:25;;;;;;;26.50;14.43;;;;;;;;;;5093520;28;20443;-75
2021/07/17 04:48:54;;;;;;;31.30;15.37;;;;;;;;;;5093810;28;20963;-75
2021/07/17 04:51:21;;;;;;;31.57;14.53;;;;;;;;;;5093652;28;20448;-75
2021/07/17 04:53:48;;;;;;;33.63;16.43;;;;;;;;;;5093466;28;20507;-74
2021/07/17 04:56:15;;;;;;;30.93;16.07;;;;;;;;;;5093731;28;20478;-75
2021/07/17 04:58:43;;;;;;;31.60;14.23;;;;;;;;;;5093294;28;20558;-76
2021/07/17 05:01:10;;;;;;;24.40;15.17;;;;;;;;;;5093338;28;20479;-74
2021/07/17 05:03:37;;;;;;;29.23;14.70;;;;;;;;;;5093596;28;20436;-75
2021/07/17 05:06:06;;;;;;;34.17;14.90;;;;;;;;;;5093096;28;20455;-75
2021/07/17 05:08:33;;;;;;;33.73;17.20;;;;;;;;;;5093316;28;20512;-74
2021/07/17 05:11:00;;;;;;;26.33;14.80;;;;;;;;;;5082316;28;20450;-76
2021/07/17 05:13:27;;;;;;;33.10;17.13;;;;;;;;;;5073333;28;20432;-75
2021/07/17 05:15:55;;;;;;;34.17;14.80;;;;;;;;;;5073716;28;20436;-75
2021/07/17 05:18:22;;;;;;;31.30;16.47;;;;;;;;;;5073380;28;20858;-75
2021/07/17 05:20:49;;;;;;;26.33;16.80;;;;;;;;;;5073642;28;20445;-75
2021/07/17 05:23:18;;;;;;;35.23;16.30;;;;;;;;;;5073323;28;20528;-75
2021/07/17 05:25:46;;;;;;;29.23;14.10;;;;;;;;;;5073777;28;20447;-76
2021/07/17 05:28:13;;;;;;;20.70;14.10;;;;;;;;;;5073641;28;20539;-75
2021/07/17 05:30:41;;;;;;;35.13;14.73;;;;;;;;;;5073346;28;20444;-75
2021/07/17 05:33:08;;;;;;;30.53;13.83;;;;;;;;;;5073149;28;20443;-76
2021/07/17 05:35:35;;;;;;;29.47;14.03;;;;;;;;;;5073453;28;20449;-76
2021/07/17 05:38:02;;;;;;;23.23;13.50;;;;;;;;;;5073047;28;20483;-75
2021/07/17 05:40:31;;;;;;;29.30;14.60;;;;;;;;;;5072646;28;20444;-76
2021/07/17 05:42:58;;;;;;;29.57;15.10;;;;;;;;;;5073135;28;20440;-75
2021/07/17 05:45:25;;;;;;;23.23;13.10;;;;;;;;;;5073000;28;20488;-77
2021/07/17 05:47:53;;;;;;;24.50;12.50;;;;;;;;;;5075274;28;20449;-76
2021/07/17 05:50:20;;;;;;;29.80;13.57;;;;;;;;;;5076645;28;20441;-76
2021/07/17 05:52:48;;;;;;;27.30;13.40;;;;;;;;;;5076433;28;20454;-77
2021/07/17 05:55:15;;;;;;;25.27;12.77;;;;;;;;;;5076721;28;20472;-77
2021/07/17 05:57:43;;;;;;;29.57;13.60;;;;;;;;;;5076262;28;20476;-77
2021/07/17 06:00:11;;;;;;;37.13;12.87;;;;;;;;;;5077333;28;20470;-79
2021/07/17 06:02:39;;;;;;;21.77;11.67;;;;;;;;;;5076730;28;20473;-75
2021/07/17 06:05:06;;;;;;;32.13;11.73;;;;;;;;;;5076333;28;20456;-78
2021/07/17 06:07:34;;;;;;;24.57;11.30;;;;;;;;;;5076372;28;20452;-75
2021/07/17 06:10:01;;;;;;;25.67;11.83;;;;;;;;;;5075990;28;20452;-75
2021/07/17 06:12:28;;;;;;;34.10;12.90;;;;;;;;;;5076792;28;20444;-76
2021/07/17 06:14:57;;;;;;;19.13;10.90;;;;;;;;;;5075869;28;20444;-76
2021/07/17 06:17:24;;;;;;;24.27;9.97;;;;;;;;;;5076015;28;20794;-76
2021/07/17 06:19:51;;;;;;;24.43;9.73;;;;;;;;;;5075982;28;20452;-76
2021/07/17 06:22:19;;;;;;;23.73;11.17;;;;;;;;;;5075812;28;20448;-76
2021/07/17 06:24:46;;;;;;;20.77;10.13;;;;;;;;;;5075770;28;20996;-76
2021/07/17 06:27:13;;;;;;;21.00;10.70;;;;;;;;;;5075903;28;20458;-75
2021/07/17 06:29:40;;;;;;;20.70;8.40;;;;;;;;;;5076360;28;20433;-75
2021/07/17 06:32:09;;;;;;;26.67;9.80;;;;;;;;;;5075847;28;20796;-76
2021/07/17 06:34:36;;;;;;;24.90;9.20;;;;;;;;;;5075720;28;20448;-75
2021/07/17 06:37:04;;;;;;;25.00;10.13;;;;;;;;;;5075816;28;20445;-76
2021/07/17 06:39:31;;;;;;;23.00;8.93;;;;;;;;;;5075586;28;20515;-75
2021/07/17 06:41:58;;;;;;;20.73;8.53;;;;;;;;;;5075528;28;20815;-76
2021/07/17 06:44:26;;;;;;;36.50;9.47;;;;;;;;;;5075966;28;20531;-76
2021/07/17 06:46:53;;;;;;;26.07;9.43;;;;;;;;;;5075617;28;20436;-76
2021/07/17 06:49:21;;;;;;;19.70;8.57;;;;;;;;;;5075632;28;20441;-76
2021/07/17 06:51:49;;;;;;;24.00;8.90;;;;;;;;;;5075044;28;20950;-76
2021/07/17 06:54:16;;;;;;;22.93;9.43;;;;;;;;;;5075539;28;20484;-76
2021/07/17 06:56:43;;;;;;;19.03;9.70;;;;;;;;;;5075120;28;20541;-76
2021/07/17 06:59:10;;;;;;;20.93;8.37;;;;;;;;;;5073789;28;20476;-76
2021/07/17 07:01:38;;;;;;;17.23;8.70;;;;;;;;;;5074982;28;20438;-76
2021/07/17 07:04:05;;;;;;;15.07;7.43;;;;;;;;;;5075013;28;20450;-76
2021/07/17 07:06:33;;;;;;;22.57;8.83;;;;;;;;;;5075240;28;20445;-77
2021/07/17 07:09:01;;;;;;;20.70;8.83;;;;;;;;;;5075150;28;20436;-76
2021/07/17 07:11:28;;;;;;;20.83;7.67;;;;;;;;;;5074796;28;20809;-77
2021/07/17 07:13:55;;;;;;;21.03;7.73;;;;;;;;;;5075790;28;20453;-77
2021/07/17 07:16:22;;;;;;;16.30;7.33;;;;;;;;;;5074969;28;20442;-77
2021/07/17 07:18:49;;;;;;;25.03;7.67;;;;;;;;;;5074549;28;20572;-77
2021/07/17 07:21:17;;;;;;;16.20;6.70;;;;;;;;;;5075283;28;20461;-77
2021/07/17 07:23:45;;;;;;;17.23;7.47;;;;;;;;;;5074863;28;20449;-76
2021/07/17 07:26:12;;;;;;;17.17;7.43;;;;;;;;;;5074565;28;20434;-76
2021/07/17 07:28:39;;;;;;;13.00;6.63;;;;;;;;;;5074829;28;20629;-76
2021/07/17 07:31:07;;;;;;;16.73;7.63;;;;;;;;;;5074197;28;20486;-77
2021/07/17 07:33:34;;;;;;;23.20;6.97;;;;;;;;;;5074578;28;20771;-76
2021/07/17 07:36:01;;;;;;;14.20;6.50;;;;;;;;;;5074826;28;20536;-76
2021/07/17 07:38:28;;;;;;;12.27;6.80;;;;;;;;;;5074802;28;20478;-76
2021/07/17 07:40:57;;;;;;;13.00;6.90;;;;;;;;;;5074099;28;20512;-76
2021/07/17 07:43:24;;;;;;;12.23;6.37;;;;;;;;;;5073747;28;20469;-76
2021/07/17 07:45:51;;;;;;;18.63;7.23;;;;;;;;;;5074266;28;20447;-76
2021/07/17 07:48:18;;;;;;;19.93;6.50;;;;;;;;;;5074359;28;20449;-77
2021/07/17 07:50:45;;;;;;;15.83;6.73;;;;;;;;;;5074313;28;20438;-76
2021/07/17 07:53:12;;;;;;;14.73;7.00;;;;;;;;;;5073413;28;20458;-75
2021/07/17 07:55:40;;;;;;;15.57;6.80;;;;;;;;;;5074129;28;20527;-78
2021/07/17 07:58:08;;;;;;;13.23;6.23;;;;;;;;;;5073952;28;20470;-75
2021/07/17 08:00:35;;;;;;;10.60;5.57;;;;;;;;;;5074104;28;20530;-75
2021/07/17 08:03:03;;;;;;;11.83;6.53;;;;;;;;;;5074013;28;20442;-75
2021/07/17 08:05:30;;;;;;;15.93;6.30;;;;;;;;;;5073975;28;20888;-68
2021/07/17 08:07:57;;;;;;;8.80;5.70;;;;;;;;;;5074057;28;20229;-72
2021/07/17 08:10:24;;;;;;;17.63;5.87;;;;;;;;;;5073237;28;20445;-72
2021/07/17 08:12:52;;;;;;;11.90;5.90;;;;;;;;;;5073888;28;20435;-71
2021/07/17 08:15:20;;;;;;;8.87;5.00;;;;;;;;;;5074063;28;20442;-71
2021/07/17 08:17:47;;;;;;;13.73;6.30;;;;;;;;;;5073633;28;20442;-74
2021/07/17 08:20:16;;;;;;;8.50;5.67;;;;;;;;;;5074047;28;20449;-72
2021/07/17 08:22:43;;;;;;;12.90;6.23;;;;;;;;;;5073924;28;20430;-72
2021/07/17 08:25:11;;;;;;;15.60;6.23;;;;;;;;;;5073420;28;20443;-73
2021/07/17 08:27:38;;;;;;;17.47;6.47;;;;;;;;;;5074087;28;20446;-72
2021/07/17 08:30:06;;;;;;;15.37;5.90;;;;;;;;;;5083746;28;20455;-72
2021/07/17 08:32:35;;;;;;;14.23;5.83;;;;;;;;;;5093988;28;20805;-72
2021/07/17 08:35:02;;;;;;;9.93;6.20;;;;;;;;;;5093500;28;20447;-74
2021/07/17 08:37:29;;;;;;;10.13;5.27;;;;;;;;;;5094234;28;20443;-74
2021/07/17 08:39:56;;;;;;;15.37;6.40;;;;;;;;;;5094212;28;20483;-73
2021/07/17 08:42:26;;;;;;;9.80;5.50;;;;;;;;;;5093919;28;20441;-73
2021/07/17 08:44:55;;;;;;;16.13;5.80;;;;;;;;;;5093722;28;20448;-72
2021/07/17 08:47:23;;;;;;;16.23;5.13;;;;;;;;;;5093745;28;20523;-72
2021/07/17 08:49:53;;;;;;;13.67;5.00;;;;;;;;;;5093613;28;20504;-73
2021/07/17 08:52:21;;;;;;;7.77;4.37;;;;;;;;;;5093356;28;20464;-73
2021/07/17 08:54:49;;;;;;;18.73;6.00;;;;;;;;;;5093691;28;20571;-74
2021/07/17 08:57:16;;;;;;;13.70;4.50;;;;;;;;;;5092722;28;20464;-73
2021/07/17 08:59:43;;;;;;;10.27;4.43;;;;;;;;;;5073242;28;20470;-74
2021/07/17 09:02:10;;;;;;;9.90;4.50;;;;;;;;;;5072915;28;20441;-75
2021/07/17 09:04:37;;;;;;;9.40;5.30;;;;;;;;;;5073703;28;20541;-73
2021/07/17 09:07:06;;;;;;;8.87;4.67;;;;;;;;;;5072828;28;20439;-74
2021/07/17 09:09:36;;;;;;;16.17;4.53;;;;;;;;;;5072882;28;20446;-74
2021/07/17 09:12:04;;;;;;;13.13;4.70;;;;;;;;;;5072753;28;20944;-74
2021/07/17 09:14:38;;;;;;;9.93;4.90;;;;;;;;;;5073121;28;20447;-74
2021/07/17 09:17:06;;;;;;;6.00;3.80;;;;;;;;;;5073110;28;20438;-73
2021/07/17 09:19:33;;;;;;;12.53;5.37;;;;;;;;;;5072998;28;20497;-73
2021/07/17 09:22:01;;;;;;;10.30;4.43;;;;;;;;;;5073155;28;20538;-73
2021/07/17 09:24:30;;;;;;;9.37;4.47;;;;;;;;;;5077411;28;21015;-74
2021/07/17 09:26:59;;;;;;;8.87;4.40;;;;;;;;;;5076628;28;20541;-75
2021/07/17 09:29:35;;;;;;;10.40;4.00;;;;;;;;;;5076552;28;20451;-73
2021/07/17 09:32:02;;;;;;;12.60;7.00;;;;;;;;;;5076581;28;20438;-74
2021/07/17 09:34:31;;;;;;;10.63;5.10;;;;;;;;;;5076964;28;20482;-74
2021/07/17 09:36:59;;;;;;;8.03;3.67;;;;;;;;;;5076393;28;20940;-75
2021/07/17 09:39:28;;;;;;;10.13;3.90;;;;;;;;;;5076665;28;20472;-74
2021/07/17 09:41:58;;;;;;;9.87;4.67;;;;;;;;;;5076340;28;20431;-73
2021/07/17 09:44:26;;;;;;;11.50;4.93;;;;;;;;;;5076666;28;20465;-74
2021/07/17 09:46:53;;;;;;;7.37;3.83;;;;;;;;;;5076710;28;20458;-74
2021/07/17 09:49:21;;;;;;;16.23;4.43;;;;;;;;;;5076262;28;21034;-75
2021/07/17 09:51:49;;;;;;;8.10;3.37;;;;;;;;;;5076129;28;20945;-74
2021/07/17 09:54:19;;;;;;;7.70;4.27;;;;;;;;;;5076151;28;20471;-75
2021/07/17 09:56:46;;;;;;;6.50;3.40;;;;;;;;;;5075923;28;20443;-76
2021/07/17 09:59:17;;;;;;;11.87;3.97;;;;;;;;;;5075925;28;20479;-74
2021/07/17 10:01:44;;;;;;;11.00;3.63;;;;;;;;;;5076324;28;20432;-75
2021/07/17 10:04:12;;;;;;;6.30;3.70;;;;;;;;;;5084369;22;20538;-76
2021/07/17 10:06:41;;;;;;;8.87;3.50;;;;;;;;;;5016624;28;20545;-77
2021/07/17 10:09:23;;;;;;;8.67;3.70;;;;;;;;;;5016431;28;20454;-77
2021/07/17 10:11:53;;;;;;;4.93;3.07;;;;;;;;;;5016334;28;20435;-76
2021/07/17 10:14:22;;;;;;;6.83;3.70;;;;;;;;;;5016235;28;20450;-78
2021/07/17 10:16:50;;;;;;;6.03;3.43;;;;;;;;;;5016131;28;20477;-76
2021/07/17 10:19:18;;;;;;;4.20;2.57;;;;;;;;;;5015800;28;20482;-77
2021/07/17 10:21:46;;;;;;;11.57;3.60;;;;;;;;;;5016177;28;20459;-77
2021/07/17 10:24:14;;;;;;;11.43;5.30;;;;;;;;;;5016152;28;20451;-77
2021/07/17 10:26:41;;;;;;;4.67;3.17;;;;;;;;;;5016352;28;20924;-77
2021/07/17 10:29:09;;;;;;;6.73;3.10;;;;;;;;;;5016083;28;20439;-78
2021/07/17 10:31:38;;;;;;;8.30;3.37;;;;;;;;;;5016313;28;20886;-78
2021/07/17 10:34:05;;;;;;;4.40;2.87;;;;;;;;;;5015547;28;20450;-77
2021/07/17 10:36:33;;;;;;;8.13;4.67;;;;;;;;;;5016300;28;20446;-77
2021/07/17 10:39:03;;;;;;;6.70;2.60;;;;;;;;;;5015798;28;20478;-78
2021/07/17 10:41:32;;;;;;;4.90;2.93;;;;;;;;;;5015727;28;20438;-76
2021/07/17 10:43:59;;;;;;;13.33;3.50;;;;;;;;;;5016370;28;20447;-76
2021/07/17 10:46:28;;;;;;;17.80;3.60;;;;;;;;;;5015424;28;20479;-76
2021/07/17 10:48:58;;;;;;;3.43;2.40;;;;;;;;;;5015739;28;20439;-77
2021/07/17 10:51:32;;;;;;;5.57;2.37;;;;;;;;;;5015923;28;20981;-76
2021/07/17 10:54:01;;;;;;;10.43;2.90;;;;;;;;;;5015852;28;20431;-76
2021/07/17 10:56:39;;;;;;;3.70;3.20;;;;;;;;;;5015458;28;20921;-76
2021/07/17 10:59:10;;;;;;;3.10;2.80;;;;;;;;;;5016012;28;20482;-77
2021/07/17 11:01:56;;;;;;;5.33;2.87;;;;;;;;;;5015392;28;20443;-77
2021/07/17 11:04:33;;;;;;;8.97;2.93;;;;;;;;;;5015144;28;20455;-76
2021/07/17 11:07:15;;;;;;;3.47;2.57;;;;;;;;;;5015911;28;20479;-78
2021/07/17 11:09:50;;;;;;;5.00;3.60;;;;;;;;;;5015448;28;20518;-77
2021/07/17 11:12:18;;;;;;;6.00;3.20;;;;;;;;;;5015387;28;20435;-77
2021/07/17 11:14:45;;;;;;;2.80;2.20;;;;;;;;;;5015298;28;20510;-81
2021/07/17 11:17:13;;;;;;;3.00;2.00;;;;;;;;;;5014664;28;20514;-76
2021/07/17 11:19:41;;;;;;;4.50;2.63;;;;;;;;;;5015046;28;20485;-73
2021/07/17 11:22:12;;;;;;;4.57;2.70;;;;;;;;;;5014919;28;20451;-72
2021/07/17 11:24:39;;;;;;;9.00;3.87;;;;;;;;;;5015365;28;20454;-70
2021/07/17 11:27:10;;;;;;;5.80;2.93;;;;;;;;;;5014654;28;20436;-71
2021/07/17 11:29:41;;;;;;;3.67;2.77;;;;;;;;;;5014824;28;20447;-70
2021/07/17 11:32:09;;;;;;;4.70;2.80;;;;;;;;;;5014794;28;20783;-74
2021/07/17 11:34:36;;;;;;;5.50;2.70;;;;;;;;;;5014417;28;20499;-73
2021/07/17 11:37:07;;;;;;;4.40;3.17;;;;;;;;;;5014657;28;20894;-72
2021/07/17 11:39:36;;;;;;;5.07;2.10;;;;;;;;;;5013663;28;20467;-73
2021/07/17 11:42:04;;;;;;;3.23;2.03;;;;;;;;;;5013931;28;20808;-74
2021/07/17 11:44:32;;;;;;;3.20;2.50;;;;;;;;;;5013611;28;20446;-73
2021/07/17 11:47:00;;;;;;;2.83;2.17;;;;;;;;;;5014082;28;20470;-73
2021/07/17 11:49:28;;;;;;;5.33;2.63;;;;;;;;;;5014196;28;20455;-72
2021/07/17 11:51:56;;;;;;;5.83;2.53;;;;;;;;;;5014237;28;20479;-73
2021/07/17 11:54:28;;;;;;;7.17;2.80;;;;;;;;;;5014201;28;20447;-73
2021/07/17 11:57:03;;;;;;;5.50;2.70;;;;;;;;;;5014074;28;20449;-73
2021/07/17 11:59:30;;;;;;;3.30;2.67;;;;;;;;;;5014289;28;20481;-71
2021/07/17 12:02:05;;;;;;;6.73;3.00;;;;;;;;;;5014329;28;20817;-73
2021/07/17 12:04:32;;;;;;;4.97;2.40;;;;;;;;;;5014078;28;20487;-72
2021/07/17 12:07:01;;;;;;;6.13;2.57;;;;;;;;;;5014265;28;20469;-73
2021/07/17 12:09:36;;;;;;;7.13;3.07;;;;;;;;;;5013915;28;20488;-73
2021/07/17 12:12:16;;;;;;;6.63;2.73;;;;;;;;;;5013836;28;20536;-73
2021/07/17 12:14:44;;;;;;;3.37;2.40;;;;;;;;;;5014528;28;20548;-73
2021/07/17 12:17:11;;;;;;;4.97;2.10;;;;;;;;;;5014151;28;20515;-74
2021/07/17 12:19:38;;;;;;;8.83;2.90;;;;;;;;;;5014072;28;20490;-73
2021/07/17 12:22:06;;;;;;;6.13;2.73;;;;;;;;;;5013611;28;20453;-73
2021/07/17 12:24:33;;;;;;;2.83;1.93;;;;;;;;;;5013496;28;20478;-75
2021/07/17 12:27:05;;;;;;;4.00;3.00;;;;;;;;;;5014130;28;20450;-72
2021/07/17 12:29:35;;;;;;;4.20;2.37;;;;;;;;;;5013938;28;20550;-72
2021/07/17 12:32:03;;;;;;;4.83;2.53;;;;;;;;;;5014157;28;20533;-73
2021/07/17 12:34:30;;;;;;;5.10;2.50;;;;;;;;;;5013301;28;20610;-73
2021/07/17 12:36:57;;;;;;;3.43;2.63;;;;;;;;;;5013226;28;20489;-71
2021/07/17 12:39:24;;;;;;;4.13;2.97;;;;;;;;;;5013007;28;20511;-73
2021/07/17 12:41:55;;;;;;;3.60;2.30;;;;;;;;;;5013502;28;20497;-75
2021/07/17 12:44:23;;;;;;;2.90;2.17;;;;;;;;;;5012961;28;20969;-72
2021/07/17 12:46:52;;;;;;;6.30;2.17;;;;;;;;;;5013566;28;20441;-74
2021/07/17 12:49:21;;;;;;;2.40;1.90;;;;;;;;;;5013731;28;20808;-73
2021/07/17 12:51:49;;;;;;;2.40;2.10;;;;;;;;;;5013555;28;20451;-74
2021/07/17 12:54:16;;;;;;;4.30;1.90;;;;;;;;;;5013109;28;20451;-73
2021/07/17 12:56:45;;;;;;;4.80;2.70;;;;;;;;;;5015358;28;20885;-72
2021/07/17 12:59:14;;;;;;;5.13;2.33;;;;;;;;;;5012531;28;20798;-72
2021/07/17 13:01:45;;;;;;;2.50;2.03;;;;;;;;;;5010932;28;20449;-73
2021/07/17 13:04:13;;;;;;;2.10;1.97;;;;;;;;;;5008521;28;20490;-75
2021/07/17 13:06:41;;;;;;;4.60;2.30;;;;;;;;;;4998268;28;20483;-76
2021/07/17 13:09:08;;;;;;;6.87;2.23;;;;;;;;;;4997962;28;20807;-76
2021/07/17 13:11:36;;;;;;;3.47;2.50;;;;;;;;;;4997534;28;20461;-74
2021/07/17 13:14:04;;;;;;;4.07;1.90;;;;;;;;;;4997653;28;20484;-69
2021/07/17 13:16:32;;;;;;;3.70;2.27;;;;;;;;;;4997722;28;20442;-74
2021/07/17 13:19:01;;;;;;;5.73;2.60;;;;;;;;;;4997455;28;20485;-76
2021/07/17 13:21:36;;;;;;;2.83;2.63;;;;;;;;;;4996719;28;20488;-73
2021/07/17 13:24:03;;;;;;;2.67;2.10;;;;;;;;;;4997060;28;20937;-67
2021/07/17 13:26:32;;;;;;;2.40;2.10;;;;;;;;;;4997545;28;20433;-73
2021/07/17 13:28:59;;;;;;;5.53;2.20;;;;;;;;;;5006005;28;20527;-73
2021/07/17 13:31:28;;;;;;;3.47;2.30;;;;;;;;;;5017208;28;20460;-74
2021/07/17 13:34:10;;;;;;;5.57;2.57;;;;;;;;;;5017050;28;20450;-70
2021/07/17 13:36:38;;;;;;;4.60;2.53;;;;;;;;;;5016749;28;20441;-75
2021/07/17 13:39:06;;;;;;;7.43;2.07;;;;;;;;;;5017196;28;20533;-76
2021/07/17 13:41:33;;;;;;;3.77;1.73;;;;;;;;;;5016980;28;20481;-74
2021/07/17 13:44:13;;;;;;;2.67;2.00;;;;;;;;;;5016964;28;20471;-74
2021/07/17 13:46:40;;;;;;;3.00;1.83;;;;;;;;;;5016882;28;20438;-72
2021/07/17 13:49:13;;;;;;;6.20;2.13;;;;;;;;;;5016093;28;20519;-72
2021/07/17 13:51:40;;;;;;;3.33;1.67;;;;;;;;;;5016440;28;20463;-72
2021/07/17 13:54:07;;;;;;;4.83;3.00;;;;;;;;;;5016131;28;20421;-71
2021/07/17 13:56:37;;;;;;;3.03;2.03;;;;;;;;;;5016645;28;20784;-72
2021/07/17 13:59:05;;;;;;;2.50;1.70;;;;;;;;;;5016521;28;20450;-73
2021/07/17 14:01:33;;;;;;;4.57;2.47;;;;;;;;;;5016528;28;20574;-71
2021/07/17 14:04:01;;;;;;;5.07;2.90;;;;;;;;;;5016153;28;20447;-72
2021/07/17 14:06:30;;;;;;;3.60;3.30;;;;;;;;;;5016018;28;20504;-71
2021/07/17 14:08:58;;;;;;;5.10;2.30;;;;;;;;;;5015792;28;20502;-71
2021/07/17 14:11:25;;;;;;;3.80;2.57;;;;;;;;;;5016020;28;20450;-70
2021/07/17 14:13:53;;;;;;;3.43;2.70;;;;;;;;;;5016370;28;20957;-71
2021/07/17 14:16:20;;;;;;;2.47;2.27;;;;;;;;;;5016121;28;20472;-71
2021/07/17 14:18:47;;;;;;;5.00;2.10;;;;;;;;;;5016052;28;20450;-71
2021/07/17 14:21:16;;;;;;;2.43;2.13;;;;;;;;;;5015889;28;20999;-72
2021/07/17 14:23:45;;;;;;;2.50;2.30;;;;;;;;;;5016532;28;20446;-70
2021/07/17 14:26:12;;;;;;;3.60;2.83;;;;;;;;;;5016325;28;20435;-71
2021/07/17 14:28:40;;;;;;;3.07;2.20;;;;;;;;;;5016185;28;20450;-70
2021/07/17 14:31:08;;;;;;;3.03;1.93;;;;;;;;;;5016030;28;20502;-70
2021/07/17 14:33:35;;;;;;;3.30;2.20;;;;;;;;;;5016216;28;20456;-70